Wetterdaten: aktuell Dienstag, 19.11.2019 05:40
Datum Zeit Lufttemp. Wassertemp. Feuchte Luftdruck Regen Wind Richtung Richtung Windben
19.11.2019 05:40 5,2 C 0,0 C 99 % 1020,1 hPa 0,0 l/m 0,0 kts (0 Bft) W 269 0,0 kts (0 Bft)
19.11.2019 05:39 5,2 C 0,0 C 99 % 1020,1 hPa 0,0 l/m 0,0 kts (0 Bft) W 269 0,0 kts (0 Bft)
19.11.2019 05:38 5,2 C 0,0 C 99 % 1020,1 hPa 0,0 l/m 0,0 kts (0 Bft) W 269 0,0 kts (0 Bft)
19.11.2019 05:37 5,2 C 0,0 C 99 % 1020,1 hPa 0,0 l/m 0,0 kts (0 Bft) W 269 0,0 kts (0 Bft)
19.11.2019 05:36 5,2 C 0,0 C 99 % 1020,1 hPa 0,0 l/m 0,0 kts (0 Bft) W 269 0,0 kts (0 Bft)
19.11.2019 05:35 5,2 C 0,0 C 99 % 1020,1 hPa 0,0 l/m 0,0 kts (0 Bft) W 269 0,0 kts (0 Bft)
19.11.2019 05:34 5,2 C 0,0 C 99 % 1020,1 hPa 0,0 l/m 0,0 kts (0 Bft) W 269 0,0 kts (0 Bft)
19.11.2019 05:33 5,2 C 0,0 C 99 % 1020,0 hPa 0,0 l/m 0,0 kts (0 Bft) W 269 0,0 kts (0 Bft)
19.11.2019 05:32 5,2 C 0,0 C 99 % 1020,0 hPa 0,0 l/m 0,2 kts (0 Bft) W 269 1,0 kts (1 Bft)
19.11.2019 05:31 5,2 C 0,0 C 99 % 1020,0 hPa 0,0 l/m 0,5 kts (0 Bft) W 269 2,1 kts (1 Bft)
19.11.2019 05:30 5,2 C 0,0 C 99 % 1020,0 hPa 0,0 l/m 0,4 kts (0 Bft) W 269 1,0 kts (1 Bft)
19.11.2019 05:29 5,2 C 0,0 C 99 % 1020,0 hPa 0,0 l/m 1,3 kts (1 Bft) W 269 2,1 kts (1 Bft)
19.11.2019 05:28 5,2 C 0,0 C 99 % 1020,0 hPa 0,0 l/m 1,0 kts (1 Bft) W 269 2,1 kts (1 Bft)
19.11.2019 05:27 5,2 C 0,0 C 99 % 1019,9 hPa 0,0 l/m 0,4 kts (0 Bft) W 269 2,1 kts (1 Bft)
19.11.2019 05:26 5,2 C 0,0 C 99 % 1019,9 hPa 0,0 l/m 1,0 kts (1 Bft) W 269 2,1 kts (1 Bft)
19.11.2019 05:25 5,2 C 0,0 C 99 % 1019,9 hPa 0,0 l/m 1,3 kts (1 Bft) W 269 3,1 kts (2 Bft)
19.11.2019 05:24 5,2 C 0,0 C 99 % 1019,9 hPa 0,0 l/m 1,6 kts (1 Bft) W 269 3,1 kts (2 Bft)
19.11.2019 05:23 5,2 C 0,0 C 99 % 1020,0 hPa 0,0 l/m 0,5 kts (0 Bft) W 269 2,1 kts (1 Bft)
19.11.2019 05:22 5,2 C 0,0 C 99 % 1020,0 hPa 0,0 l/m 1,8 kts (1 Bft) W 269 2,1 kts (1 Bft)
19.11.2019 05:21 5,2 C 0,0 C 99 % 1019,9 hPa 0,0 l/m 2,3 kts (1 Bft) W 269 3,1 kts (2 Bft)
19.11.2019 05:20 5,2 C 0,0 C 99 % 1019,9 hPa 0,0 l/m 1,8 kts (1 Bft) W 269 3,1 kts (2 Bft)
19.11.2019 05:19 5,2 C 0,0 C 99 % 1020,0 hPa 0,0 l/m 0,0 kts (0 Bft) W 269 0,0 kts (0 Bft)
19.11.2019 05:18 5,2 C 0,0 C 99 % 1019,9 hPa 0,0 l/m 0,0 kts (0 Bft) W 269 0,0 kts (0 Bft)
19.11.2019 05:17 5,2 C 0,0 C 99 % 1019,8 hPa 0,0 l/m 0,1 kts (0 Bft) W 269 1,0 kts (1 Bft)
19.11.2019 05:16 5,2 C 0,0 C 99 % 1019,9 hPa 0,0 l/m 0,6 kts (1 Bft) W 269 2,1 kts (1 Bft)
19.11.2019 05:15 5,2 C 0,0 C 99 % 1019,9 hPa 0,0 l/m 0,0 kts (0 Bft) W 269 0,0 kts (0 Bft)
19.11.2019 05:14 5,2 C 0,0 C 99 % 1019,8 hPa 0,0 l/m 0,0 kts (0 Bft) W 269 0,0 kts (0 Bft)
19.11.2019 05:13 5,2 C 0,0 C 99 % 1019,9 hPa 0,0 l/m 0,3 kts (0 Bft) W 269 2,1 kts (1 Bft)
19.11.2019 05:12 5,2 C 0,0 C 99 % 1019,9 hPa 0,0 l/m 1,3 kts (1 Bft) W 269 3,1 kts (2 Bft)
19.11.2019 05:11 5,2 C 0,0 C 99 % 1019,8 hPa 0,2 l/m 4,3 kts (2 Bft) W 269 6,3 kts (2 Bft)
19.11.2019 05:10 5,2 C 0,0 C 99 % 1019,9 hPa 0,0 l/m 2,3 kts (1 Bft) W 269 4,2 kts (2 Bft)
19.11.2019 05:09 5,2 C 0,0 C 99 % 1019,9 hPa 0,0 l/m 4,4 kts (2 Bft) W 269 5,2 kts (2 Bft)
19.11.2019 05:08 5,2 C 0,0 C 99 % 1019,9 hPa 0,0 l/m 3,1 kts (2 Bft) W 269 6,3 kts (2 Bft)
19.11.2019 05:07 5,2 C 0,0 C 99 % 1019,8 hPa 0,0 l/m 3,1 kts (2 Bft) W 269 6,3 kts (2 Bft)
19.11.2019 05:06 5,2 C 0,0 C 99 % 1019,8 hPa 0,0 l/m 4,0 kts (2 Bft) W 269 6,3 kts (2 Bft)
19.11.2019 05:05 5,2 C 0,0 C 99 % 1019,9 hPa 0,0 l/m 3,2 kts (2 Bft) W 269 4,2 kts (2 Bft)
19.11.2019 05:04 5,3 C 0,0 C 99 % 1019,9 hPa 0,0 l/m 3,0 kts (2 Bft) W 269 4,2 kts (2 Bft)
19.11.2019 05:03 5,3 C 0,0 C 99 % 1019,9 hPa 0,0 l/m 3,5 kts (2 Bft) W 269 4,2 kts (2 Bft)
19.11.2019 05:02 5,3 C 0,0 C 99 % 1020,0 hPa 0,0 l/m 2,8 kts (1 Bft) W 269 4,2 kts (2 Bft)
19.11.2019 05:01 5,3 C 0,0 C 99 % 1020,0 hPa 0,0 l/m 3,6 kts (2 Bft) W 269 4,2 kts (2 Bft)
19.11.2019 05:00 5,3 C 0,0 C 99 % 1020,0 hPa 0,0 l/m 2,9 kts (2 Bft) W 269 4,2 kts (2 Bft)
19.11.2019 04:59 5,3 C 0,0 C 99 % 1020,0 hPa 0,0 l/m 1,2 kts (1 Bft) W 269 2,1 kts (1 Bft)
19.11.2019 04:58 5,3 C 0,0 C 99 % 1020,0 hPa 0,0 l/m 0,5 kts (0 Bft) W 269 3,1 kts (2 Bft)
19.11.2019 04:57 5,3 C 0,0 C 99 % 1020,0 hPa 0,0 l/m 0,0 kts (0 Bft) W 269 0,0 kts (0 Bft)
19.11.2019 04:56 5,3 C 0,0 C 99 % 1020,1 hPa 0,0 l/m 0,0 kts (0 Bft) W 269 0,0 kts (0 Bft)
19.11.2019 04:55 5,3 C 0,0 C 99 % 1020,0 hPa 0,0 l/m 0,0 kts (0 Bft) W 269 0,0 kts (0 Bft)
19.11.2019 04:54 5,3 C 0,0 C 99 % 1020,0 hPa 0,0 l/m 0,0 kts (0 Bft) W 269 0,0 kts (0 Bft)
19.11.2019 04:53 5,3 C 0,0 C 99 % 1020,1 hPa 0,0 l/m 0,0 kts (0 Bft) W 269 0,0 kts (0 Bft)
19.11.2019 04:52 5,3 C 0,0 C 99 % 1020,0 hPa 0,2 l/m 0,0 kts (0 Bft) W 269 0,0 kts (0 Bft)
19.11.2019 04:51 5,3 C 0,0 C 99 % 1020,0 hPa 0,0 l/m 0,0 kts (0 Bft) W 269 0,0 kts (0 Bft)
19.11.2019 04:50 5,3 C 0,0 C 99 % 1020,0 hPa 0,0 l/m 0,0 kts (0 Bft) W 269 0,0 kts (0 Bft)
19.11.2019 04:49 5,3 C 0,0 C 99 % 1020,0 hPa 0,0 l/m 0,3 kts (0 Bft) W 269 1,0 kts (1 Bft)
19.11.2019 04:48 5,3 C 0,0 C 99 % 1020,0 hPa 0,0 l/m 0,0 kts (0 Bft) W 269 0,0 kts (0 Bft)
19.11.2019 04:47 5,3 C 0,0 C 99 % 1020,0 hPa 0,0 l/m 0,0 kts (0 Bft) W 269 0,0 kts (0 Bft)
19.11.2019 04:46 5,3 C 0,0 C 99 % 1020,0 hPa 0,0 l/m 0,0 kts (0 Bft) W 269 0,0 kts (0 Bft)
19.11.2019 04:45 5,3 C 0,0 C 99 % 1020,0 hPa 0,0 l/m 0,0 kts (0 Bft) W 269 0,0 kts (0 Bft)
19.11.2019 04:44 5,3 C 0,0 C 99 % 1020,0 hPa 0,0 l/m 0,0 kts (0 Bft) W 269 0,0 kts (0 Bft)
19.11.2019 04:43 5,3 C 0,0 C 99 % 1020,0 hPa 0,0 l/m 0,0 kts (0 Bft) W 269 0,0 kts (0 Bft)
19.11.2019 04:42 5,3 C 0,0 C 99 % 1020,0 hPa 0,0 l/m 0,0 kts (0 Bft) W 269 0,0 kts (0 Bft)
19.11.2019 04:41 5,3 C 0,0 C 99 % 1020,0 hPa 0,0 l/m 0,0 kts (0 Bft) W 269 0,0 kts (0 Bft)
19.11.2019 04:40 5,3 C 0,0 C 99 % 1020,1 hPa 0,0 l/m 0,0 kts (0 Bft) W 269 0,0 kts (0 Bft)
_ Min-Zeit 05:05 00:00 00:00 05:06 - 00:00 - - 00:00
Minimum _ 5,2 C 0,0 C 98 % 1019,8 hPa - 0,0 kts (0 Bft) - - 0,0 kts (0 Bft)
_ Max-Zeit 00:59 00:00 00:10 02:04 00:03 05:09 - - 05:06
Maximum _ 6,4 C 0,0 C 99 % 1020,8 hPa 0,2 l/m 4,4 kts
W (2 Bft)
- - 6,3 kts
W (2 Bft)
Durchschnitt _ 5,5 C 0,0 C 99 % 1020,4 hPa #2,8 l/m 0,2 kts (0 Bft) W - 0,5 kts (0 Bft)